sensor_id;sensor_type;location;lat;lon;timestamp;P1;durP1;ratioP1;P2;durP2;ratioP2
22046;SDS011;11187;49.412;20.956;2023-11-19T00:00:28;22.67;;;20.48;;
22046;SDS011;11187;49.412;20.956;2023-11-19T00:03:14;22.27;;;19.90;;
22046;SDS011;11187;49.412;20.956;2023-11-19T00:05:48;21.55;;;19.42;;
22046;SDS011;11187;49.412;20.956;2023-11-19T00:08:42;21.60;;;19.38;;
22046;SDS011;11187;49.412;20.956;2023-11-19T00:11:36;21.45;;;19.20;;
22046;SDS011;11187;49.412;20.956;2023-11-19T00:14:20;19.92;;;18.02;;
22046;SDS011;11187;49.412;20.956;2023-11-19T00:17:06;21.63;;;19.52;;
22046;SDS011;11187;49.412;20.956;2023-11-19T00:19:40;20.52;;;18.65;;
22046;SDS011;11187;49.412;20.956;2023-11-19T00:22:26;20.90;;;18.83;;
22046;SDS011;11187;49.412;20.956;2023-11-19T00:25:01;20.10;;;18.10;;
22046;SDS011;11187;49.412;20.956;2023-11-19T00:27:47;21.27;;;19.13;;
22046;SDS011;11187;49.412;20.956;2023-11-19T00:30:21;21.10;;;19.02;;
22046;SDS011;11187;49.412;20.956;2023-11-19T00:33:07;20.33;;;18.40;;
22046;SDS011;11187;49.412;20.956;2023-11-19T00:35:41;20.27;;;18.27;;
22046;SDS011;11187;49.412;20.956;2023-11-19T00:38:34;22.60;;;17.90;;
22046;SDS011;11187;49.412;20.956;2023-11-19T00:41:08;19.85;;;18.08;;
22046;SDS011;11187;49.412;20.956;2023-11-19T00:43:55;20.95;;;18.63;;
22046;SDS011;11187;49.412;20.956;2023-11-19T00:46:49;22.58;;;19.90;;
22046;SDS011;11187;49.412;20.956;2023-11-19T00:49:23;21.23;;;18.40;;
22046;SDS011;11187;49.412;20.956;2023-11-19T00:52:09;22.00;;;19.70;;
22046;SDS011;11187;49.412;20.956;2023-11-19T00:54:43;20.77;;;18.75;;
22046;SDS011;11187;49.412;20.956;2023-11-19T00:57:30;21.33;;;19.23;;
22046;SDS011;11187;49.412;20.956;2023-11-19T01:00:06;20.27;;;18.23;;
22046;SDS011;11187;49.412;20.956;2023-11-19T01:03:00;19.13;;;17.23;;
22046;SDS011;11187;49.412;20.956;2023-11-19T01:05:34;19.33;;;17.30;;
22046;SDS011;11187;49.412;20.956;2023-11-19T01:08:21;21.83;;;19.73;;
22046;SDS011;11187;49.412;20.956;2023-11-19T01:10:55;20.23;;;18.00;;
22046;SDS011;11187;49.412;20.956;2023-11-19T01:13:41;21.27;;;19.25;;
22046;SDS011;11187;49.412;20.956;2023-11-19T01:16:15;20.45;;;18.45;;
22046;SDS011;11187;49.412;20.956;2023-11-19T01:19:02;20.05;;;18.27;;
22046;SDS011;11187;49.412;20.956;2023-11-19T01:21:43;21.10;;;18.95;;
22046;SDS011;11187;49.412;20.956;2023-11-19T01:24:30;22.38;;;19.50;;
22046;SDS011;11187;49.412;20.956;2023-11-19T01:27:04;20.95;;;19.05;;
22046;SDS011;11187;49.412;20.956;2023-11-19T01:29:50;17.77;;;16.08;;
22046;SDS011;11187;49.412;20.956;2023-11-19T01:32:24;20.63;;;18.65;;
22046;SDS011;11187;49.412;20.956;2023-11-19T01:35:17;21.17;;;19.08;;
22046;SDS011;11187;49.412;20.956;2023-11-19T01:38:11;18.90;;;17.10;;
22046;SDS011;11187;49.412;20.956;2023-11-19T01:40:45;19.85;;;17.77;;
22046;SDS011;11187;49.412;20.956;2023-11-19T01:46:20;23.50;;;19.50;;
22046;SDS011;11187;49.412;20.956;2023-11-19T01:49:00;18.17;;;16.30;;
22046;SDS011;11187;49.412;20.956;2023-11-19T01:51:41;20.25;;;18.20;;
22046;SDS011;11187;49.412;20.956;2023-11-19T01:54:21;20.15;;;18.23;;
22046;SDS011;11187;49.412;20.956;2023-11-19T01:57:01;21.17;;;19.20;;
22046;SDS011;11187;49.412;20.956;2023-11-19T01:59:41;24.92;;;17.50;;
22046;SDS011;11187;49.412;20.956;2023-11-19T02:02:22;20.45;;;18.60;;
22046;SDS011;11187;49.412;20.956;2023-11-19T02:05:04;21.88;;;18.73;;
22046;SDS011;11187;49.412;20.956;2023-11-19T02:07:44;19.63;;;17.73;;
22046;SDS011;11187;49.412;20.956;2023-11-19T02:10:24;21.05;;;19.15;;
22046;SDS011;11187;49.412;20.956;2023-11-19T02:13:04;20.77;;;16.95;;
22046;SDS011;11187;49.412;20.956;2023-11-19T02:15:46;18.70;;;16.70;;
22046;SDS011;11187;49.412;20.956;2023-11-19T02:18:27;19.55;;;17.95;;
22046;SDS011;11187;49.412;20.956;2023-11-19T02:21:07;19.23;;;17.63;;
22046;SDS011;11187;49.412;20.956;2023-11-19T02:23:50;18.42;;;16.73;;
22046;SDS011;11187;49.412;20.956;2023-11-19T02:26:47;17.73;;;16.13;;
22046;SDS011;11187;49.412;20.956;2023-11-19T02:29:29;20.27;;;17.33;;
22046;SDS011;11187;49.412;20.956;2023-11-19T02:32:16;20.17;;;18.27;;
22046;SDS011;11187;49.412;20.956;2023-11-19T02:34:49;19.67;;;17.77;;
22046;SDS011;11187;49.412;20.956;2023-11-19T02:37:39;18.98;;;17.17;;
22046;SDS011;11187;49.412;20.956;2023-11-19T02:40:12;18.55;;;16.58;;
22046;SDS011;11187;49.412;20.956;2023-11-19T02:42:59;21.00;;;18.88;;
22046;SDS011;11187;49.412;20.956;2023-11-19T02:45:54;19.95;;;17.98;;
22046;SDS011;11187;49.412;20.956;2023-11-19T02:48:51;19.30;;;17.52;;
22046;SDS011;11187;49.412;20.956;2023-11-19T02:51:45;21.20;;;19.17;;
22046;SDS011;11187;49.412;20.956;2023-11-19T02:54:19;20.40;;;18.08;;
22046;SDS011;11187;49.412;20.956;2023-11-19T02:57:07;19.40;;;17.60;;
22046;SDS011;11187;49.412;20.956;2023-11-19T02:59:45;20.13;;;18.08;;
22046;SDS011;11187;49.412;20.956;2023-11-19T03:02:40;19.23;;;17.55;;
22046;SDS011;11187;49.412;20.956;2023-11-19T03:05:34;20.02;;;18.13;;
22046;SDS011;11187;49.412;20.956;2023-11-19T03:08:08;18.65;;;16.80;;
22046;SDS011;11187;49.412;20.956;2023-11-19T03:11:02;19.55;;;17.75;;
22046;SDS011;11187;49.412;20.956;2023-11-19T03:13:38;20.27;;;18.38;;
22046;SDS011;11187;49.412;20.956;2023-11-19T03:16:24;20.98;;;18.88;;
22046;SDS011;11187;49.412;20.956;2023-11-19T03:18:58;18.70;;;16.90;;
22046;SDS011;11187;49.412;20.956;2023-11-19T03:21:44;19.48;;;17.63;;
22046;SDS011;11187;49.412;20.956;2023-11-19T03:24:18;18.98;;;17.08;;
22046;SDS011;11187;49.412;20.956;2023-11-19T03:27:11;19.45;;;17.55;;
22046;SDS011;11187;49.412;20.956;2023-11-19T03:29:45;19.33;;;17.42;;
22046;SDS011;11187;49.412;20.956;2023-11-19T03:32:38;19.45;;;17.55;;
22046;SDS011;11187;49.412;20.956;2023-11-19T03:35:12;21.08;;;19.02;;
22046;SDS011;11187;49.412;20.956;2023-11-19T03:38:05;20.40;;;18.50;;
22046;SDS011;11187;49.412;20.956;2023-11-19T03:40:39;24.55;;;22.13;;
22046;SDS011;11187;49.412;20.956;2023-11-19T03:43:32;20.02;;;18.13;;
22046;SDS011;11187;49.412;20.956;2023-11-19T03:46:26;20.27;;;18.48;;
22046;SDS011;11187;49.412;20.956;2023-11-19T03:49:06;19.15;;;17.15;;
22046;SDS011;11187;49.412;20.956;2023-11-19T03:51:46;20.27;;;18.30;;
22046;SDS011;11187;49.412;20.956;2023-11-19T03:54:26;19.27;;;17.30;;
22046;SDS011;11187;49.412;20.956;2023-11-19T03:57:06;20.65;;;18.67;;
22046;SDS011;11187;49.412;20.956;2023-11-19T03:59:47;19.90;;;17.75;;
22046;SDS011;11187;49.412;20.956;2023-11-19T04:02:27;21.80;;;19.70;;
22046;SDS011;11187;49.412;20.956;2023-11-19T04:05:07;19.60;;;17.55;;
22046;SDS011;11187;49.412;20.956;2023-11-19T04:07:54;20.75;;;18.65;;
22046;SDS011;11187;49.412;20.956;2023-11-19T04:10:34;21.63;;;19.67;;
22046;SDS011;11187;49.412;20.956;2023-11-19T04:13:21;20.05;;;18.15;;
22046;SDS011;11187;49.412;20.956;2023-11-19T04:16:01;21.63;;;19.55;;
22046;SDS011;11187;49.412;20.956;2023-11-19T04:18:48;20.42;;;18.48;;
22046;SDS011;11187;49.412;20.956;2023-11-19T04:21:28;20.15;;;18.23;;
22046;SDS011;11187;49.412;20.956;2023-11-19T04:24:15;21.90;;;19.88;;
22046;SDS011;11187;49.412;20.956;2023-11-19T04:26:48;19.45;;;17.83;;
22046;SDS011;11187;49.412;20.956;2023-11-19T04:29:35;22.27;;;19.70;;
22046;SDS011;11187;49.412;20.956;2023-11-19T04:32:09;21.17;;;19.17;;
22046;SDS011;11187;49.412;20.956;2023-11-19T04:34:56;21.50;;;18.83;;
22046;SDS011;11187;49.412;20.956;2023-11-19T04:37:29;20.25;;;18.10;;
22046;SDS011;11187;49.412;20.956;2023-11-19T04:40:16;19.55;;;17.77;;
22046;SDS011;11187;49.412;20.956;2023-11-19T04:42:58;20.80;;;18.85;;
22046;SDS011;11187;49.412;20.956;2023-11-19T04:45:53;22.27;;;20.17;;
22046;SDS011;11187;49.412;20.956;2023-11-19T04:48:47;18.52;;;16.75;;
22046;SDS011;11187;49.412;20.956;2023-11-19T04:51:21;22.55;;;20.17;;
22046;SDS011;11187;49.412;20.956;2023-11-19T04:54:08;22.40;;;20.20;;
22046;SDS011;11187;49.412;20.956;2023-11-19T04:56:44;20.77;;;18.80;;
22046;SDS011;11187;49.412;20.956;2023-11-19T04:59:34;20.08;;;18.27;;
22046;SDS011;11187;49.412;20.956;2023-11-19T05:02:08;21.90;;;19.73;;
22046;SDS011;11187;49.412;20.956;2023-11-19T05:04:55;21.17;;;19.15;;
22046;SDS011;11187;49.412;20.956;2023-11-19T05:07:29;21.10;;;19.15;;
22046;SDS011;11187;49.412;20.956;2023-11-19T05:10:08;21.02;;;18.95;;
22046;SDS011;11187;49.412;20.956;2023-11-19T05:12:49;21.05;;;19.15;;
22046;SDS011;11187;49.412;20.956;2023-11-19T05:15:23;21.73;;;19.70;;
22046;SDS011;11187;49.412;20.956;2023-11-19T05:18:09;20.40;;;18.60;;
22046;SDS011;11187;49.412;20.956;2023-11-19T05:20:43;20.75;;;18.80;;
22046;SDS011;11187;49.412;20.956;2023-11-19T05:23:29;20.30;;;18.23;;
22046;SDS011;11187;49.412;20.956;2023-11-19T05:26:03;21.13;;;19.13;;
22046;SDS011;11187;49.412;20.956;2023-11-19T05:28:56;20.35;;;18.17;;
22046;SDS011;11187;49.412;20.956;2023-11-19T05:31:36;19.38;;;17.38;;
22046;SDS011;11187;49.412;20.956;2023-11-19T05:34:30;20.55;;;18.48;;
22046;SDS011;11187;49.412;20.956;2023-11-19T05:37:27;20.80;;;18.77;;
22046;SDS011;11187;49.412;20.956;2023-11-19T05:40:01;20.15;;;18.17;;
22046;SDS011;11187;49.412;20.956;2023-11-19T05:42:55;20.92;;;16.42;;
22046;SDS011;11187;49.412;20.956;2023-11-19T05:45:29;19.27;;;17.48;;
22046;SDS011;11187;49.412;20.956;2023-11-19T05:48:15;20.70;;;18.60;;
22046;SDS011;11187;49.412;20.956;2023-11-19T05:50:56;19.75;;;17.48;;
22046;SDS011;11187;49.412;20.956;2023-11-19T05:53:39;20.42;;;17.63;;
22046;SDS011;11187;49.412;20.956;2023-11-19T05:56:19;22.35;;;19.90;;
22046;SDS011;11187;49.412;20.956;2023-11-19T05:59:05;22.77;;;18.42;;
22046;SDS011;11187;49.412;20.956;2023-11-19T06:01:54;20.25;;;18.08;;
22046;SDS011;11187;49.412;20.956;2023-11-19T06:04:41;19.98;;;18.15;;
22046;SDS011;11187;49.412;20.956;2023-11-19T06:07:16;21.35;;;18.13;;
22046;SDS011;11187;49.412;20.956;2023-11-19T06:10:03;19.85;;;17.83;;
22046;SDS011;11187;49.412;20.956;2023-11-19T06:12:45;26.40;;;21.02;;
22046;SDS011;11187;49.412;20.956;2023-11-19T06:15:28;21.98;;;19.77;;
22046;SDS011;11187;49.412;20.956;2023-11-19T06:18:08;22.63;;;19.50;;
22046;SDS011;11187;49.412;20.956;2023-11-19T06:20:55;21.17;;;19.08;;
22046;SDS011;11187;49.412;20.956;2023-11-19T06:23:35;23.77;;;20.92;;
22046;SDS011;11187;49.412;20.956;2023-11-19T06:26:22;23.35;;;20.30;;
22046;SDS011;11187;49.412;20.956;2023-11-19T06:28:55;20.33;;;18.33;;
22046;SDS011;11187;49.412;20.956;2023-11-19T06:31:42;20.80;;;18.55;;
22046;SDS011;11187;49.412;20.956;2023-11-19T06:34:15;20.35;;;18.17;;
22046;SDS011;11187;49.412;20.956;2023-11-19T06:37:02;21.33;;;19.10;;
22046;SDS011;11187;49.412;20.956;2023-11-19T06:39:39;22.05;;;20.05;;
22046;SDS011;11187;49.412;20.956;2023-11-19T06:42:26;20.73;;;18.70;;
22046;SDS011;11187;49.412;20.956;2023-11-19T06:44:59;20.10;;;18.30;;
22046;SDS011;11187;49.412;20.956;2023-11-19T06:47:46;21.13;;;19.23;;
22046;SDS011;11187;49.412;20.956;2023-11-19T06:50:19;21.30;;;19.30;;
22046;SDS011;11187;49.412;20.956;2023-11-19T06:53:06;20.30;;;18.60;;
22046;SDS011;11187;49.412;20.956;2023-11-19T06:55:49;20.83;;;18.92;;
22046;SDS011;11187;49.412;20.956;2023-11-19T06:58:36;21.08;;;19.08;;
22046;SDS011;11187;49.412;20.956;2023-11-19T07:01:17;21.20;;;19.23;;
22046;SDS011;11187;49.412;20.956;2023-11-19T07:03:57;21.30;;;19.17;;
22046;SDS011;11187;49.412;20.956;2023-11-19T07:06:38;20.85;;;18.95;;
22046;SDS011;11187;49.412;20.956;2023-11-19T07:09:19;19.50;;;17.63;;
22046;SDS011;11187;49.412;20.956;2023-11-19T07:12:04;18.58;;;16.73;;
22046;SDS011;11187;49.412;20.956;2023-11-19T07:14:45;20.73;;;18.83;;
22046;SDS011;11187;49.412;20.956;2023-11-19T07:17:25;20.98;;;18.98;;
22046;SDS011;11187;49.412;20.956;2023-11-19T07:20:06;22.13;;;19.77;;
22046;SDS011;11187;49.412;20.956;2023-11-19T07:22:46;38.33;;;25.60;;
22046;SDS011;11187;49.412;20.956;2023-11-19T07:25:30;29.17;;;22.60;;
22046;SDS011;11187;49.412;20.956;2023-11-19T07:28:10;23.25;;;20.92;;
22046;SDS011;11187;49.412;20.956;2023-11-19T07:30:50;22.88;;;20.55;;
22046;SDS011;11187;49.412;20.956;2023-11-19T07:33:30;23.05;;;20.63;;
22046;SDS011;11187;49.412;20.956;2023-11-19T07:36:11;22.42;;;20.33;;
22046;SDS011;11187;49.412;20.956;2023-11-19T07:38:52;21.90;;;19.90;;
22046;SDS011;11187;49.412;20.956;2023-11-19T07:41:32;23.20;;;21.20;;
22046;SDS011;11187;49.412;20.956;2023-11-19T07:44:19;23.10;;;21.10;;
22046;SDS011;11187;49.412;20.956;2023-11-19T07:47:13;22.95;;;20.52;;
22046;SDS011;11187;49.412;20.956;2023-11-19T07:50:09;22.65;;;20.35;;
22046;SDS011;11187;49.412;20.956;2023-11-19T07:52:44;25.38;;;19.05;;
22046;SDS011;11187;49.412;20.956;2023-11-19T07:55:30;21.95;;;19.60;;
22046;SDS011;11187;49.412;20.956;2023-11-19T07:58:14;26.08;;;21.75;;
22046;SDS011;11187;49.412;20.956;2023-11-19T08:00:57;27.13;;;21.60;;
22046;SDS011;11187;49.412;20.956;2023-11-19T08:03:37;21.98;;;19.67;;
22046;SDS011;11187;49.412;20.956;2023-11-19T08:06:20;22.30;;;19.95;;
22046;SDS011;11187;49.412;20.956;2023-11-19T08:09:00;21.95;;;19.65;;
22046;SDS011;11187;49.412;20.956;2023-11-19T08:11:52;21.95;;;19.73;;
22046;SDS011;11187;49.412;20.956;2023-11-19T08:14:25;22.80;;;20.70;;
22046;SDS011;11187;49.412;20.956;2023-11-19T08:17:12;20.67;;;18.77;;
22046;SDS011;11187;49.412;20.956;2023-11-19T08:19:46;20.25;;;18.20;;
22046;SDS011;11187;49.412;20.956;2023-11-19T08:22:33;21.38;;;19.35;;
22046;SDS011;11187;49.412;20.956;2023-11-19T08:25:07;24.02;;;20.90;;
22046;SDS011;11187;49.412;20.956;2023-11-19T08:27:54;36.15;;;28.52;;
22046;SDS011;11187;49.412;20.956;2023-11-19T08:30:26;32.28;;;24.52;;
22046;SDS011;11187;49.412;20.956;2023-11-19T08:33:13;24.83;;;22.23;;
22046;SDS011;11187;49.412;20.956;2023-11-19T08:35:54;24.25;;;21.65;;
22046;SDS011;11187;49.412;20.956;2023-11-19T08:38:50;23.83;;;21.33;;
22046;SDS011;11187;49.412;20.956;2023-11-19T08:41:31;26.02;;;21.60;;
22046;SDS011;11187;49.412;20.956;2023-11-19T08:44:12;21.25;;;19.05;;
22046;SDS011;11187;49.412;20.956;2023-11-19T08:46:52;19.73;;;17.77;;
22046;SDS011;11187;49.412;20.956;2023-11-19T08:49:32;22.38;;;20.13;;
22046;SDS011;11187;49.412;20.956;2023-11-19T08:52:12;23.35;;;21.10;;
22046;SDS011;11187;49.412;20.956;2023-11-19T08:54:52;22.33;;;20.05;;
22046;SDS011;11187;49.412;20.956;2023-11-19T08:57:32;21.55;;;19.35;;
22046;SDS011;11187;49.412;20.956;2023-11-19T09:00:12;24.73;;;22.15;;
22046;SDS011;11187;49.412;20.956;2023-11-19T09:02:53;20.17;;;18.15;;
22046;SDS011;11187;49.412;20.956;2023-11-19T09:05:33;26.20;;;22.75;;
22046;SDS011;11187;49.412;20.956;2023-11-19T09:08:13;23.67;;;20.38;;
22046;SDS011;11187;49.412;20.956;2023-11-19T09:11:00;25.10;;;22.27;;
22046;SDS011;11187;49.412;20.956;2023-11-19T09:13:33;30.25;;;23.15;;
22046;SDS011;11187;49.412;20.956;2023-11-19T09:16:20;23.77;;;21.45;;
22046;SDS011;11187;49.412;20.956;2023-11-19T09:19:01;23.13;;;19.30;;
22046;SDS011;11187;49.412;20.956;2023-11-19T09:21:41;19.52;;;17.42;;
22046;SDS011;11187;49.412;20.956;2023-11-19T09:24:21;23.70;;;21.48;;
22046;SDS011;11187;49.412;20.956;2023-11-19T09:27:01;23.42;;;20.75;;
22046;SDS011;11187;49.412;20.956;2023-11-19T09:29:41;22.45;;;20.10;;
22046;SDS011;11187;49.412;20.956;2023-11-19T09:32:24;24.52;;;21.27;;
22046;SDS011;11187;49.412;20.956;2023-11-19T09:35:05;22.88;;;20.00;;
22046;SDS011;11187;49.412;20.956;2023-11-19T09:37:46;21.42;;;19.15;;
22046;SDS011;11187;49.412;20.956;2023-11-19T09:40:26;21.67;;;19.58;;
22046;SDS011;11187;49.412;20.956;2023-11-19T09:43:07;28.98;;;21.00;;
22046;SDS011;11187;49.412;20.956;2023-11-19T09:45:53;23.23;;;20.23;;
22046;SDS011;11187;49.412;20.956;2023-11-19T09:48:54;22.38;;;19.25;;
22046;SDS011;11187;49.412;20.956;2023-11-19T09:51:31;21.63;;;19.58;;
22046;SDS011;11187;49.412;20.956;2023-11-19T09:54:24;23.95;;;21.75;;
22046;SDS011;11187;49.412;20.956;2023-11-19T09:56:58;21.02;;;19.05;;
22046;SDS011;11187;49.412;20.956;2023-11-19T09:59:46;21.20;;;19.13;;
22046;SDS011;11187;49.412;20.956;2023-11-19T10:02:27;19.95;;;18.13;;
22046;SDS011;11187;49.412;20.956;2023-11-19T10:05:17;20.95;;;19.17;;
22046;SDS011;11187;49.412;20.956;2023-11-19T10:07:53;24.70;;;20.63;;
22046;SDS011;11187;49.412;20.956;2023-11-19T10:10:40;24.65;;;19.00;;
22046;SDS011;11187;49.412;20.956;2023-11-19T10:13:14;23.20;;;20.20;;
22046;SDS011;11187;49.412;20.956;2023-11-19T10:16:12;25.05;;;20.48;;
22046;SDS011;11187;49.412;20.956;2023-11-19T10:18:52;23.17;;;19.83;;
22046;SDS011;11187;49.412;20.956;2023-11-19T10:21:39;22.33;;;20.23;;
22046;SDS011;11187;49.412;20.956;2023-11-19T10:24:32;23.35;;;20.83;;
22046;SDS011;11187;49.412;20.956;2023-11-19T10:27:27;23.80;;;21.50;;
22046;SDS011;11187;49.412;20.956;2023-11-19T10:30:19;30.60;;;22.73;;
22046;SDS011;11187;49.412;20.956;2023-11-19T10:33:23;23.42;;;20.98;;
22046;SDS011;11187;49.412;20.956;2023-11-19T10:36:22;25.92;;;22.55;;
22046;SDS011;11187;49.412;20.956;2023-11-19T10:39:10;23.30;;;20.85;;
22046;SDS011;11187;49.412;20.956;2023-11-19T10:42:17;26.20;;;22.05;;
22046;SDS011;11187;49.412;20.956;2023-11-19T10:44:50;22.20;;;20.08;;
22046;SDS011;11187;49.412;20.956;2023-11-19T10:47:43;20.80;;;18.73;;
22046;SDS011;11187;49.412;20.956;2023-11-19T10:50:18;22.33;;;20.25;;
22046;SDS011;11187;49.412;20.956;2023-11-19T10:53:05;23.92;;;21.52;;
22046;SDS011;11187;49.412;20.956;2023-11-19T10:55:39;22.35;;;20.30;;
22046;SDS011;11187;49.412;20.956;2023-11-19T10:58:32;25.52;;;22.83;;
22046;SDS011;11187;49.412;20.956;2023-11-19T11:01:29;22.38;;;20.17;;
22046;SDS011;11187;49.412;20.956;2023-11-19T11:04:13;23.80;;;21.50;;
22046;SDS011;11187;49.412;20.956;2023-11-19T11:07:07;19.85;;;17.75;;
22046;SDS011;11187;49.412;20.956;2023-11-19T11:09:42;19.10;;;16.80;;
22046;SDS011;11187;49.412;20.956;2023-11-19T11:12:37;23.40;;;21.20;;
22046;SDS011;11187;49.412;20.956;2023-11-19T11:15:30;23.58;;;21.08;;
22046;SDS011;11187;49.412;20.956;2023-11-19T11:18:04;23.40;;;20.77;;
22046;SDS011;11187;49.412;20.956;2023-11-19T11:21:09;23.33;;;20.92;;
22046;SDS011;11187;49.412;20.956;2023-11-19T11:35:55;21.33;;;19.23;;
22046;SDS011;11187;49.412;20.956;2023-11-19T11:39:01;21.23;;;18.85;;
22046;SDS011;11187;49.412;20.956;2023-11-19T11:45:00;19.85;;;17.90;;
22046;SDS011;11187;49.412;20.956;2023-11-19T11:50:28;20.85;;;18.73;;
22046;SDS011;11187;49.412;20.956;2023-11-19T11:53:24;22.05;;;19.85;;
22046;SDS011;11187;49.412;20.956;2023-11-19T11:56:18;20.35;;;18.75;;
22046;SDS011;11187;49.412;20.956;2023-11-19T11:59:19;20.83;;;18.90;;
22046;SDS011;11187;49.412;20.956;2023-11-19T12:01:59;21.20;;;19.17;;
22046;SDS011;11187;49.412;20.956;2023-11-19T12:04:42;22.60;;;20.25;;
22046;SDS011;11187;49.412;20.956;2023-11-19T12:07:23;21.52;;;18.60;;
22046;SDS011;11187;49.412;20.956;2023-11-19T12:10:07;24.48;;;20.30;;
22046;SDS011;11187;49.412;20.956;2023-11-19T12:12:49;22.80;;;20.50;;
22046;SDS011;11187;49.412;20.956;2023-11-19T12:15:33;23.70;;;20.83;;
22046;SDS011;11187;49.412;20.956;2023-11-19T12:18:13;22.33;;;20.13;;
22046;SDS011;11187;49.412;20.956;2023-11-19T12:21:06;21.67;;;19.58;;
22046;SDS011;11187;49.412;20.956;2023-11-19T12:23:46;18.60;;;16.67;;
22046;SDS011;11187;49.412;20.956;2023-11-19T12:26:37;24.33;;;21.40;;
22046;SDS011;11187;49.412;20.956;2023-11-19T12:29:11;21.90;;;18.77;;
22046;SDS011;11187;49.412;20.956;2023-11-19T12:31:57;21.83;;;19.83;;
22046;SDS011;11187;49.412;20.956;2023-11-19T12:34:39;21.35;;;19.55;;
22046;SDS011;11187;49.412;20.956;2023-11-19T12:37:25;20.88;;;18.98;;
22046;SDS011;11187;49.412;20.956;2023-11-19T12:40:02;21.00;;;19.08;;
22046;SDS011;11187;49.412;20.956;2023-11-19T12:42:49;21.17;;;19.27;;
22046;SDS011;11187;49.412;20.956;2023-11-19T12:45:36;20.27;;;18.23;;
22046;SDS011;11187;49.412;20.956;2023-11-19T12:48:30;21.10;;;19.00;;
22046;SDS011;11187;49.412;20.956;2023-11-19T12:51:04;22.58;;;20.27;;
22046;SDS011;11187;49.412;20.956;2023-11-19T12:53:53;21.05;;;18.90;;
22046;SDS011;11187;49.412;20.956;2023-11-19T12:56:54;21.45;;;19.35;;
22046;SDS011;11187;49.412;20.956;2023-11-19T12:59:54;22.90;;;20.75;;
22046;SDS011;11187;49.412;20.956;2023-11-19T13:02:49;22.40;;;19.80;;
22046;SDS011;11187;49.412;20.956;2023-11-19T13:05:37;23.30;;;21.13;;
22046;SDS011;11187;49.412;20.956;2023-11-19T13:08:11;22.00;;;19.75;;
22046;SDS011;11187;49.412;20.956;2023-11-19T13:11:19;24.52;;;21.92;;
22046;SDS011;11187;49.412;20.956;2023-11-19T13:14:14;20.65;;;18.63;;
22046;SDS011;11187;49.412;20.956;2023-11-19T13:16:53;19.25;;;17.10;;
22046;SDS011;11187;49.412;20.956;2023-11-19T13:19:34;21.77;;;19.25;;
22046;SDS011;11187;49.412;20.956;2023-11-19T13:22:13;24.17;;;19.50;;
22046;SDS011;11187;49.412;20.956;2023-11-19T13:24:54;22.60;;;19.55;;
22046;SDS011;11187;49.412;20.956;2023-11-19T13:27:36;25.38;;;22.35;;
22046;SDS011;11187;49.412;20.956;2023-11-19T13:30:17;28.23;;;23.55;;
22046;SDS011;11187;49.412;20.956;2023-11-19T13:33:03;24.17;;;20.27;;
22046;SDS011;11187;49.412;20.956;2023-11-19T13:35:37;23.42;;;21.02;;
22046;SDS011;11187;49.412;20.956;2023-11-19T13:38:23;27.23;;;20.58;;
22046;SDS011;11187;49.412;20.956;2023-11-19T13:40:57;35.25;;;22.80;;
22046;SDS011;11187;49.412;20.956;2023-11-19T13:43:43;34.42;;;22.98;;
22046;SDS011;11187;49.412;20.956;2023-11-19T13:46:22;27.85;;;20.42;;
22046;SDS011;11187;49.412;20.956;2023-11-19T13:49:09;25.85;;;21.85;;
22046;SDS011;11187;49.412;20.956;2023-11-19T13:51:50;27.65;;;23.20;;
22046;SDS011;11187;49.412;20.956;2023-11-19T13:54:36;25.05;;;22.55;;
22046;SDS011;11187;49.412;20.956;2023-11-19T13:57:11;29.33;;;22.27;;
22046;SDS011;11187;49.412;20.956;2023-11-19T13:59:57;34.42;;;25.65;;
22046;SDS011;11187;49.412;20.956;2023-11-19T14:02:44;31.40;;;24.65;;
22046;SDS011;11187;49.412;20.956;2023-11-19T14:05:32;35.20;;;26.48;;
22046;SDS011;11187;49.412;20.956;2023-11-19T14:08:09;29.23;;;24.90;;
22046;SDS011;11187;49.412;20.956;2023-11-19T14:10:57;30.98;;;25.77;;
22046;SDS011;11187;49.412;20.956;2023-11-19T14:13:32;32.20;;;25.92;;
22046;SDS011;11187;49.412;20.956;2023-11-19T14:16:18;33.15;;;27.10;;
22046;SDS011;11187;49.412;20.956;2023-11-19T14:18:52;33.53;;;26.83;;
22046;SDS011;11187;49.412;20.956;2023-11-19T14:21:38;40.00;;;30.30;;
22046;SDS011;11187;49.412;20.956;2023-11-19T14:24:19;39.45;;;28.13;;
22046;SDS011;11187;49.412;20.956;2023-11-19T14:26:58;41.17;;;30.38;;
22046;SDS011;11187;49.412;20.956;2023-11-19T14:29:39;37.47;;;28.98;;
22046;SDS011;11187;49.412;20.956;2023-11-19T14:32:18;37.83;;;28.17;;
22046;SDS011;11187;49.412;20.956;2023-11-19T14:34:59;35.00;;;29.25;;
22046;SDS011;11187;49.412;20.956;2023-11-19T14:37:45;40.35;;;30.65;;
22046;SDS011;11187;49.412;20.956;2023-11-19T14:40:26;36.88;;;28.73;;
22046;SDS011;11187;49.412;20.956;2023-11-19T14:43:09;37.83;;;28.27;;
22046;SDS011;11187;49.412;20.956;2023-11-19T14:45:59;45.63;;;33.10;;
22046;SDS011;11187;49.412;20.956;2023-11-19T14:48:53;40.13;;;28.73;;
22046;SDS011;11187;49.412;20.956;2023-11-19T14:51:47;32.63;;;25.20;;
22046;SDS011;11187;49.412;20.956;2023-11-19T14:54:21;37.15;;;28.88;;
22046;SDS011;11187;49.412;20.956;2023-11-19T14:57:07;36.78;;;29.30;;
22046;SDS011;11187;49.412;20.956;2023-11-19T14:59:41;33.53;;;27.77;;
22046;SDS011;11187;49.412;20.956;2023-11-19T15:02:34;33.65;;;28.83;;
22046;SDS011;11187;49.412;20.956;2023-11-19T15:05:28;35.03;;;29.60;;
22046;SDS011;11187;49.412;20.956;2023-11-19T15:08:22;35.53;;;29.98;;
22046;SDS011;11187;49.412;20.956;2023-11-19T15:11:16;32.17;;;27.73;;
22046;SDS011;11187;49.412;20.956;2023-11-19T15:14:11;37.08;;;31.27;;
22046;SDS011;11187;49.412;20.956;2023-11-19T15:17:08;37.00;;;29.55;;
22046;SDS011;11187;49.412;20.956;2023-11-19T15:20:05;37.17;;;30.10;;
22046;SDS011;11187;49.412;20.956;2023-11-19T15:22:39;38.83;;;30.00;;
22046;SDS011;11187;49.412;20.956;2023-11-19T15:25:25;35.35;;;28.63;;
22046;SDS011;11187;49.412;20.956;2023-11-19T15:27:59;32.88;;;28.88;;
22046;SDS011;11187;49.412;20.956;2023-11-19T15:30:46;30.45;;;27.05;;
22046;SDS011;11187;49.412;20.956;2023-11-19T15:33:26;29.58;;;25.45;;
22046;SDS011;11187;49.412;20.956;2023-11-19T15:36:12;30.33;;;26.92;;
22046;SDS011;11187;49.412;20.956;2023-11-19T15:38:46;30.13;;;27.23;;
22046;SDS011;11187;49.412;20.956;2023-11-19T15:41:32;27.40;;;24.80;;
22046;SDS011;11187;49.412;20.956;2023-11-19T15:44:06;41.88;;;27.98;;
22046;SDS011;11187;49.412;20.956;2023-11-19T15:46:53;44.20;;;29.90;;
22046;SDS011;11187;49.412;20.956;2023-11-19T15:49:34;37.33;;;25.15;;
22046;SDS011;11187;49.412;20.956;2023-11-19T15:52:20;34.42;;;25.70;;
22046;SDS011;11187;49.412;20.956;2023-11-19T15:54:54;28.50;;;25.27;;
22046;SDS011;11187;49.412;20.956;2023-11-19T15:57:40;27.98;;;24.23;;
22046;SDS011;11187;49.412;20.956;2023-11-19T16:00:27;26.23;;;23.80;;
22046;SDS011;11187;49.412;20.956;2023-11-19T16:03:21;37.72;;;30.40;;